Time;durP1;ratioP1;P1;durP2;ratioP2;P2;SDS_P1;SDS_P2;PMS_P1;PMS_P2;Temp;Humidity;BMP_temperature;BMP_pressure;BME280_temperature;BME280_humidity;BME280_pressure;Samples;Min_cycle;Max_cycle;Signal;HPM_P1;HPM_P2
2022/06/27 00:00:44;;;;;;;9.77;4.78;;;17.10;99.90;;;;;;5011013;28;20054;-77
2022/06/27 00:03:09;;;;;;;7.60;4.60;;;17.10;99.90;;;;;;5011550;28;20053;-76
2022/06/27 00:05:35;;;;;;;5.45;4.32;;;17.10;99.90;;;;;;5011259;28;20069;-76
2022/06/27 00:08:00;;;;;;;8.73;4.25;;;17.10;99.90;;;;;;5011557;28;20041;-77
2022/06/27 00:10:26;;;;;;;8.27;4.80;;;17.10;99.90;;;;;;5010846;28;20074;-77
2022/06/27 00:12:52;;;;;;;10.23;4.22;;;17.10;99.90;;;;;;5011405;28;20088;-80
2022/06/27 00:15:17;;;;;;;8.38;3.92;;;17.00;99.90;;;;;;5012459;28;20560;-78
2022/06/27 00:17:43;;;;;;;7.40;3.80;;;17.10;99.90;;;;;;5012672;28;20426;-77
2022/06/27 00:20:09;;;;;;;5.88;3.58;;;17.00;99.90;;;;;;5010959;28;20100;-77
2022/06/27 00:22:35;;;;;;;5.82;3.70;;;17.00;99.90;;;;;;5012611;28;20071;-76
2022/06/27 00:25:01;;;;;;;5.97;3.83;;;17.00;99.90;;;;;;5010575;28;20489;-77
2022/06/27 00:27:26;;;;;;;9.18;4.30;;;16.90;99.90;;;;;;5010826;28;20513;-79
2022/06/27 00:29:52;;;;;;;6.43;3.58;;;17.00;99.90;;;;;;5010700;28;20042;-76
2022/06/27 00:32:18;;;;;;;7.95;4.82;;;16.90;99.90;;;;;;5010953;28;20390;-76
2022/06/27 00:34:43;;;;;;;5.28;3.85;;;16.90;99.90;;;;;;5012053;28;20128;-78
2022/06/27 00:37:09;;;;;;;4.93;4.28;;;16.90;99.90;;;;;;5010692;28;20073;-76
2022/06/27 00:39:35;;;;;;;7.38;3.70;;;16.90;99.90;;;;;;5010799;28;20057;-78
2022/06/27 00:42:00;;;;;;;7.20;3.85;;;16.90;99.90;;;;;;5010936;28;20140;-76
2022/06/27 00:44:32;;;;;;;7.05;4.03;;;16.90;99.90;;;;;;5011020;28;20042;-77
2022/06/27 00:46:58;;;;;;;5.45;4.00;;;16.90;99.90;;;;;;5010597;28;20038;-77
2022/06/27 00:49:24;;;;;;;8.48;4.00;;;16.90;99.90;;;;;;5010747;28;20109;-77
2022/06/27 00:51:50;;;;;;;6.35;4.03;;;16.80;99.90;;;;;;5010718;28;20457;-77
2022/06/27 00:54:15;;;;;;;3.85;3.45;;;16.80;99.90;;;;;;5010918;28;20077;-79
2022/06/27 00:56:41;;;;;;;5.22;3.88;;;16.80;99.90;;;;;;5011844;28;20045;-80
2022/06/27 00:59:07;;;;;;;7.43;3.95;;;16.80;99.90;;;;;;5011856;28;20077;-79
2022/06/27 01:01:32;;;;;;;6.65;3.97;;;16.80;99.90;;;;;;5011474;28;20049;-79
2022/06/27 01:04:00;;;;;;;7.32;3.60;;;16.80;99.90;;;;;;5010548;28;20068;-77
2022/06/27 01:06:27;;;;;;;8.35;4.63;;;16.70;99.90;;;;;;5010696;28;20484;-77
2022/06/27 01:08:53;;;;;;;7.35;4.20;;;16.70;99.90;;;;;;5010624;28;20045;-77
2022/06/27 01:11:19;;;;;;;6.60;4.25;;;16.70;99.90;;;;;;5011563;28;20030;-77
2022/06/27 01:13:45;;;;;;;6.47;4.00;;;16.70;99.90;;;;;;5010677;28;20511;-77
2022/06/27 01:16:11;;;;;;;9.45;3.70;;;16.70;99.90;;;;;;5010388;28;20135;-78
2022/06/27 01:18:37;;;;;;;9.20;4.90;;;16.60;99.90;;;;;;5010457;28;20066;-77
2022/06/27 01:21:03;;;;;;;10.65;4.40;;;16.60;99.90;;;;;;5010154;28;20069;-77
2022/06/27 01:23:29;;;;;;;5.32;4.35;;;16.60;99.90;;;;;;5010191;28;20358;-77
2022/06/27 01:25:54;;;;;;;8.60;4.40;;;16.60;99.90;;;;;;5011267;28;20116;-77
2022/06/27 01:28:20;;;;;;;6.28;4.50;;;16.60;99.90;;;;;;5010348;28;20194;-79
2022/06/27 01:30:47;;;;;;;10.40;5.43;;;16.60;99.90;;;;;;5009677;28;20042;-79
2022/06/27 01:33:13;;;;;;;7.43;4.35;;;16.60;99.90;;;;;;5010079;28;20184;-77
2022/06/27 01:35:39;;;;;;;8.15;4.78;;;16.60;99.90;;;;;;5009957;28;20511;-77
2022/06/27 01:38:05;;;;;;;6.88;4.75;;;16.70;99.90;;;;;;5010093;28;20030;-79
2022/06/27 01:40:30;;;;;;;7.38;4.53;;;16.70;99.90;;;;;;5009907;28;20354;-80
2022/06/27 01:42:56;;;;;;;6.28;4.47;;;16.70;99.90;;;;;;5011995;28;20039;-77
2022/06/27 01:45:22;;;;;;;7.93;4.90;;;16.70;99.90;;;;;;5013919;28;20120;-77
2022/06/27 01:47:48;;;;;;;6.53;4.47;;;16.70;99.90;;;;;;5013858;28;20510;-77
2022/06/27 01:50:15;;;;;;;8.95;4.40;;;16.70;99.90;;;;;;5013338;28;20046;-77
2022/06/27 01:52:42;;;;;;;7.63;4.20;;;16.70;99.90;;;;;;5014047;28;20508;-77
2022/06/27 01:55:09;;;;;;;6.15;4.20;;;16.80;99.90;;;;;;5013686;28;20053;-77
2022/06/27 01:57:35;;;;;;;9.48;5.15;;;16.70;99.90;;;;;;5014060;28;20046;-77
2022/06/27 02:00:00;;;;;;;7.95;5.13;;;16.70;99.90;;;;;;5013495;28;20053;-77
2022/06/27 02:02:26;;;;;;;6.20;4.18;;;16.70;99.90;;;;;;5013835;28;20042;-77
2022/06/27 02:04:52;;;;;;;4.53;4.13;;;16.70;99.90;;;;;;5013502;28;20052;-77
2022/06/27 02:07:19;;;;;;;8.10;4.93;;;16.70;99.90;;;;;;5013582;28;20120;-77
2022/06/27 02:09:45;;;;;;;5.75;3.97;;;16.60;99.90;;;;;;5013552;28;20298;-77
2022/06/27 02:12:20;;;;;;;6.38;4.88;;;16.60;99.90;;;;;;5013573;28;20046;-77
2022/06/27 02:14:52;;;;;;;6.53;4.18;;;16.70;99.90;;;;;;5013369;28;20067;-80
2022/06/27 02:17:17;;;;;;;;;;;16.70;99.90;;;;;;5013915;28;20081;-79
2022/06/27 02:19:44;;;;;;;6.80;4.10;;;16.60;99.90;;;;;;5013124;28;19975;-77
2022/06/27 02:22:11;;;;;;;7.72;4.60;;;16.60;99.90;;;;;;5013182;28;20575;-77
2022/06/27 02:24:36;;;;;;;8.02;4.13;;;16.60;99.90;;;;;;5014578;28;20045;-77
2022/06/27 02:27:03;;;;;;;8.27;4.22;;;16.50;99.90;;;;;;5013445;28;20048;-77
2022/06/27 02:29:29;;;;;;;8.85;4.07;;;16.50;99.90;;;;;;5012955;28;20489;-77
2022/06/27 02:31:54;;;;;;;6.80;4.13;;;16.50;99.90;;;;;;5013198;28;20093;-77
2022/06/27 02:34:20;;;;;;;5.70;3.75;;;16.60;99.90;;;;;;5013154;28;20096;-78
2022/06/27 02:36:48;;;;;;;7.13;4.18;;;16.60;99.90;;;;;;5013010;28;20042;-80
2022/06/27 02:39:23;;;;;;;4.57;3.70;;;16.60;99.90;;;;;;5013233;28;20092;-79
2022/06/27 02:41:53;;;;;;;9.40;4.22;;;16.60;99.90;;;;;;5012947;28;20049;-77
2022/06/27 02:44:21;;;;;;;6.63;3.83;;;16.60;99.90;;;;;;5014149;28;20053;-78
2022/06/27 02:46:49;;;;;;;6.88;4.25;;;16.60;99.90;;;;;;5012969;28;20378;-78
2022/06/27 02:49:15;;;;;;;5.13;3.50;;;16.70;99.90;;;;;;5012981;28;20038;-78
2022/06/27 02:51:59;;;;;;;7.53;4.20;;;16.70;99.90;;;;;;5012934;28;20504;-80
2022/06/27 02:54:32;;;;;;;7.30;3.78;;;16.70;99.90;;;;;;5011786;28;20160;-77
2022/06/27 02:57:10;;;;;;;6.75;4.32;;;16.70;99.90;;;;;;5016748;28;20042;-77
2022/06/27 02:59:41;;;;;;;7.47;4.35;;;16.70;99.90;;;;;;5030014;28;20046;-81
2022/06/27 03:02:09;;;;;;;7.88;4.78;;;16.60;99.90;;;;;;5020310;28;20129;-79
2022/06/27 03:04:34;;;;;;;7.50;5.20;;;16.60;99.90;;;;;;5012429;28;20038;-77
2022/06/27 03:07:01;;;;;;;7.57;4.88;;;16.60;99.90;;;;;;5012828;28;20046;-77
2022/06/27 03:09:26;;;;;;;4.78;4.10;;;16.60;99.90;;;;;;5012586;28;20180;-77
2022/06/27 03:11:52;;;;;;;5.85;4.25;;;16.60;99.90;;;;;;5014716;28;20049;-81
2022/06/27 03:14:18;;;;;;;6.85;4.47;;;16.60;99.90;;;;;;5014344;28;20120;-81
2022/06/27 03:16:44;;;;;;;6.80;4.20;;;16.70;99.90;;;;;;5000215;28;20084;-80
2022/06/27 03:19:09;;;;;;;12.15;4.43;;;16.70;99.90;;;;;;5016607;28;20041;-79
2022/06/27 03:21:35;;;;;;;8.38;4.35;;;16.70;99.90;;;;;;5015714;28;20155;-81
2022/06/27 03:24:01;;;;;;;8.05;4.28;;;16.70;99.90;;;;;;5014215;28;20041;-81
2022/06/27 03:26:27;;;;;;;7.30;4.75;;;16.70;99.90;;;;;;4997854;28;20541;-81
2022/06/27 03:28:53;;;;;;;7.93;4.50;;;16.70;99.90;;;;;;5015209;28;20386;-81
2022/06/27 03:31:18;;;;;;;7.88;4.55;;;16.70;99.90;;;;;;5016323;28;20045;-81
2022/06/27 03:33:44;;;;;;;6.07;4.22;;;16.70;99.90;;;;;;5014933;28;20117;-80
2022/06/27 03:36:10;;;;;;;5.88;4.82;;;16.70;99.90;;;;;;5016531;28;20117;-81
2022/06/27 03:38:35;;;;;;;8.55;5.15;;;16.60;99.90;;;;;;5017433;28;20517;-80
2022/06/27 03:41:01;;;;;;;7.60;4.72;;;16.70;99.90;;;;;;5001659;28;20133;-80
2022/06/27 03:43:27;;;;;;;8.98;5.25;;;16.70;99.90;;;;;;5016116;28;20105;-81
2022/06/27 03:45:54;;;;;;;7.03;5.18;;;16.70;99.90;;;;;;5017849;28;20045;-81
2022/06/27 03:51:04;;;;;;;8.07;5.90;;;16.70;99.90;;;;;;5012788;28;20129;-81
2022/06/27 03:53:29;;;;;;;9.63;6.05;;;16.70;99.90;;;;;;5013422;28;20074;-81
2022/06/27 03:55:55;;;;;;;10.50;6.15;;;16.60;99.90;;;;;;5013040;28;20045;-80
2022/06/27 03:58:20;;;;;;;12.00;6.82;;;16.60;99.90;;;;;;5013131;28;20053;-80
2022/06/27 04:00:46;;;;;;;10.88;7.47;;;16.50;99.90;;;;;;4996732;28;20045;-80
2022/06/27 04:03:12;;;;;;;10.10;6.95;;;16.50;99.90;;;;;;5013990;28;20096;-80
2022/06/27 04:05:37;;;;;;;13.07;7.85;;;16.50;99.90;;;;;;5013744;28;20050;-80
2022/06/27 04:08:03;;;;;;;10.32;7.57;;;16.50;99.90;;;;;;5017714;28;20046;-81
2022/06/27 04:10:29;;;;;;;12.02;8.10;;;16.40;99.90;;;;;;4997588;28;20049;-80
2022/06/27 04:12:55;;;;;;;12.48;7.65;;;16.50;99.90;;;;;;5017377;28;20050;-80
2022/06/27 04:15:21;;;;;;;11.48;8.13;;;16.40;99.90;;;;;;4999328;28;20120;-80
2022/06/27 04:17:46;;;;;;;11.40;8.23;;;16.40;99.90;;;;;;5015421;28;20034;-81
2022/06/27 04:20:12;;;;;;;10.90;8.15;;;16.40;99.90;;;;;;5012066;28;20113;-81
2022/06/27 04:22:38;;;;;;;12.95;8.75;;;16.40;99.90;;;;;;5011126;28;20038;-81
2022/06/27 04:25:04;;;;;;;11.85;7.45;;;16.40;99.90;;;;;;5012424;28;20100;-81
2022/06/27 04:27:30;;;;;;;11.02;7.32;;;16.40;99.90;;;;;;5012776;28;20041;-80
2022/06/27 04:29:56;;;;;;;10.90;7.10;;;16.40;99.90;;;;;;4999052;28;20402;-80
2022/06/27 04:32:23;;;;;;;9.20;6.80;;;16.30;99.90;;;;;;5014869;28;20092;-80
2022/06/27 04:34:49;;;;;;;9.10;6.07;;;16.40;99.90;;;;;;5014662;28;20038;-81
2022/06/27 04:37:16;;;;;;;10.13;5.85;;;16.30;99.90;;;;;;5016221;28;20476;-80
2022/06/27 04:39:42;;;;;;;8.52;5.00;;;16.30;99.90;;;;;;5014026;28;20089;-80
2022/06/27 04:42:08;;;;;;;6.25;5.03;;;16.30;99.90;;;;;;5016317;28;20128;-79
2022/06/27 04:44:37;;;;;;;6.10;4.65;;;16.30;99.90;;;;;;5018602;28;20505;-80
2022/06/27 04:47:08;;;;;;;6.25;4.82;;;16.30;99.90;;;;;;5016231;28;20085;-81
2022/06/27 04:49:35;;;;;;;7.00;4.22;;;16.30;99.90;;;;;;5015758;28;20489;-81
2022/06/27 04:52:01;;;;;;;10.38;4.85;;;16.30;99.90;;;;;;5013953;28;20034;-81
2022/06/27 04:54:27;;;;;;;5.72;3.70;;;16.20;99.90;;;;;;5015208;28;20437;-81
2022/06/27 04:56:56;;;;;;;5.82;3.33;;;16.30;99.90;;;;;;5012428;28;20038;-79
2022/06/27 04:59:22;;;;;;;6.13;3.60;;;16.30;99.90;;;;;;5018290;28;20053;-80
2022/06/27 05:01:50;;;;;;;4.30;3.42;;;16.30;99.90;;;;;;5001328;28;20085;-80
2022/06/27 05:04:20;;;;;;;3.78;3.05;;;16.30;99.90;;;;;;5018634;28;20523;-80
2022/06/27 05:06:47;;;;;;;5.13;3.38;;;16.30;99.90;;;;;;5002547;28;20045;-80
2022/06/27 05:09:16;;;;;;;4.35;3.05;;;16.30;99.90;;;;;;5017299;28;20044;-79
2022/06/27 05:11:44;;;;;;;4.20;3.75;;;16.30;99.90;;;;;;5017659;28;20046;-80
2022/06/27 05:14:11;;;;;;;7.30;3.78;;;16.30;99.90;;;;;;4998010;28;20652;-81
2022/06/27 05:16:36;;;;;;;9.05;3.90;;;16.30;99.90;;;;;;5015067;28;20062;-80
2022/06/27 05:19:02;;;;;;;7.85;3.00;;;16.40;99.90;;;;;;5017407;28;20500;-80
2022/06/27 05:21:28;;;;;;;3.90;3.03;;;16.40;99.90;;;;;;5000326;28;20038;-80
2022/06/27 05:23:54;;;;;;;4.45;2.97;;;16.40;99.90;;;;;;5021447;28;20050;-79
2022/06/27 05:26:20;;;;;;;3.97;2.80;;;16.50;99.90;;;;;;5019486;28;20041;-79
2022/06/27 05:28:45;;;;;;;4.30;3.17;;;16.50;99.90;;;;;;4999815;28;20173;-80
2022/06/27 05:31:11;;;;;;;4.68;2.83;;;16.50;99.90;;;;;;5017890;28;20057;-80
2022/06/27 05:33:37;;;;;;;5.22;3.40;;;16.50;99.90;;;;;;4999007;28;20045;-80
2022/06/27 05:36:04;;;;;;;6.93;2.97;;;16.70;99.90;;;;;;5016348;28;20034;-80
2022/06/27 05:38:31;;;;;;;6.05;3.13;;;16.70;99.90;;;;;;5001092;28;20080;-80
2022/06/27 05:40:57;;;;;;;3.22;2.85;;;16.80;99.90;;;;;;5016460;28;20042;-78
2022/06/27 05:43:24;;;;;;;4.25;3.22;;;16.80;99.90;;;;;;5017883;28;20042;-77
2022/06/27 05:45:50;;;;;;;3.95;3.20;;;16.90;99.90;;;;;;5017708;28;20042;-78
2022/06/27 05:48:16;;;;;;;4.97;3.25;;;17.00;99.90;;;;;;5015694;28;20060;-79
2022/06/27 05:50:41;;;;;;;4.22;2.88;;;17.20;99.90;;;;;;5016492;28;20105;-79
2022/06/27 05:53:07;;;;;;;3.45;3.13;;;17.20;99.90;;;;;;4999924;28;20173;-80
2022/06/27 05:55:33;;;;;;;7.28;3.28;;;17.30;99.90;;;;;;5017212;28;20051;-79
2022/06/27 05:58:00;;;;;;;4.45;2.95;;;17.20;99.90;;;;;;5017298;28;20038;-79
2022/06/27 06:00:27;;;;;;;3.30;2.70;;;17.20;99.90;;;;;;5028688;28;20469;-78
2022/06/27 06:02:54;;;;;;;7.05;3.58;;;17.20;99.90;;;;;;5007707;28;20053;-79
2022/06/27 06:05:21;;;;;;;5.07;2.65;;;17.20;99.90;;;;;;5020097;28;20042;-80
2022/06/27 06:07:47;;;;;;;4.47;2.63;;;17.20;99.90;;;;;;5009731;28;20054;-80
2022/06/27 06:10:14;;;;;;;6.03;2.67;;;17.20;99.90;;;;;;5009227;28;20046;-81
2022/06/27 06:12:40;;;;;;;4.63;2.35;;;17.10;99.90;;;;;;5010333;28;20046;-81
2022/06/27 06:15:08;;;;;;;3.92;2.70;;;17.10;99.90;;;;;;4992982;28;20042;-81
2022/06/27 06:17:36;;;;;;;3.55;2.70;;;17.10;99.90;;;;;;5010536;28;20520;-80
2022/06/27 06:20:06;;;;;;;6.22;2.55;;;17.10;99.90;;;;;;5009973;28;20046;-80
2022/06/27 06:22:32;;;;;;;3.70;3.17;;;17.10;99.90;;;;;;4993476;28;20077;-81
2022/06/27 06:24:58;;;;;;;3.83;2.55;;;17.10;99.90;;;;;;5009762;28;20437;-80
2022/06/27 06:27:24;;;;;;;3.38;2.58;;;17.10;99.90;;;;;;4994031;28;20124;-81
2022/06/27 06:29:49;;;;;;;3.85;2.67;;;17.10;99.90;;;;;;5012798;28;20133;-81
2022/06/27 06:32:15;;;;;;;6.60;3.33;;;17.10;99.90;;;;;;5015601;28;20046;-80
2022/06/27 06:34:42;;;;;;;3.75;2.42;;;17.10;99.90;;;;;;4997984;28;20132;-80
2022/06/27 06:37:09;;;;;;;5.63;2.75;;;17.20;99.90;;;;;;5014779;28;20433;-79
2022/06/27 06:39:36;;;;;;;3.47;2.67;;;17.20;99.90;;;;;;4997002;28;20531;-80
2022/06/27 06:42:03;;;;;;;4.55;2.97;;;17.20;99.90;;;;;;5013520;28;20045;-80
2022/06/27 06:44:29;;;;;;;3.53;2.70;;;17.20;99.90;;;;;;5012610;28;20054;-80
2022/06/27 06:46:56;;;;;;;5.03;2.65;;;17.20;99.90;;;;;;5011903;28;20044;-80
2022/06/27 06:49:25;;;;;;;3.25;2.58;;;17.30;99.90;;;;;;5012296;28;20129;-80
2022/06/27 06:51:51;;;;;;;4.57;2.40;;;17.30;99.90;;;;;;5012240;28;20038;-80
2022/06/27 06:54:20;;;;;;;4.07;2.65;;;17.40;99.90;;;;;;5012857;28;20042;-80
2022/06/27 06:56:49;;;;;;;3.55;2.58;;;17.30;99.90;;;;;;5011898;28;20053;-79
2022/06/27 06:59:16;;;;;;;3.13;2.33;;;17.40;99.90;;;;;;5013537;28;20046;-79
2022/06/27 07:01:43;;;;;;;5.03;2.78;;;17.50;99.90;;;;;;5012078;28;20053;-79
2022/06/27 07:04:09;;;;;;;3.97;2.78;;;17.50;99.90;;;;;;5012274;28;20080;-79
2022/06/27 07:06:35;;;;;;;4.78;2.38;;;17.60;99.90;;;;;;5012614;28;20045;-79
2022/06/27 07:09:01;;;;;;;2.50;2.30;;;17.60;99.90;;;;;;5012681;28;20049;-80
2022/06/27 07:11:31;;;;;;;3.42;2.25;;;17.70;99.90;;;;;;5012414;28;20516;-79
2022/06/27 07:13:58;;;;;;;3.63;2.03;;;17.70;99.90;;;;;;5012924;28;20101;-79
2022/06/27 07:16:25;;;;;;;3.35;2.63;;;17.70;99.90;;;;;;5012278;28;20038;-79
2022/06/27 07:18:56;;;;;;;3.60;2.38;;;17.80;99.90;;;;;;5012122;28;20394;-79
2022/06/27 07:21:23;;;;;;;4.07;2.80;;;17.70;99.90;;;;;;5012575;28;20053;-79
2022/06/27 07:23:50;;;;;;;3.72;2.15;;;17.70;99.90;;;;;;5012827;28;20409;-79
2022/06/27 07:26:17;;;;;;;3.30;2.45;;;17.70;99.90;;;;;;5012304;28;20151;-79
2022/06/27 07:28:44;;;;;;;4.32;2.90;;;17.70;99.90;;;;;;5012480;28;20041;-80
2022/06/27 07:31:12;;;;;;;5.90;2.75;;;17.70;99.90;;;;;;5013087;28;20151;-80
2022/06/27 07:33:51;;;;;;;3.05;2.22;;;17.70;99.90;;;;;;5027205;28;20038;-80
2022/06/27 07:36:19;;;;;;;4.43;2.55;;;17.80;99.90;;;;;;5014115;28;20448;-80
2022/06/27 07:38:47;;;;;;;3.20;2.40;;;17.70;99.90;;;;;;5006507;28;20037;-80
2022/06/27 07:41:15;;;;;;;3.13;2.55;;;17.80;99.90;;;;;;5016265;28;20085;-80
2022/06/27 07:43:43;;;;;;;2.63;2.40;;;17.80;99.90;;;;;;5012549;28;20050;-80
2022/06/27 07:46:10;;;;;;;2.80;1.92;;;17.90;99.90;;;;;;5019971;28;20095;-80
2022/06/27 07:48:35;;;;;;;3.28;2.40;;;17.90;99.90;;;;;;5019270;28;20046;-80
2022/06/27 07:51:01;;;;;;;5.20;2.97;;;18.00;99.90;;;;;;5016574;28;20335;-81
2022/06/27 07:53:27;;;;;;;4.82;2.70;;;18.10;99.90;;;;;;5022868;28;20449;-80
2022/06/27 07:55:56;;;;;;;3.33;2.47;;;18.20;99.90;;;;;;5025865;28;20052;-81
2022/06/27 07:58:33;;;;;;;3.90;2.60;;;18.30;99.90;;;;;;5022180;28;20045;-80
2022/06/27 08:01:02;;;;;;;5.10;3.67;;;18.40;99.90;;;;;;5024358;28;20104;-80
2022/06/27 08:03:40;;;;;;;4.95;2.65;;;18.50;99.90;;;;;;5031868;28;20080;-80
2022/06/27 08:06:15;;;;;;;2.97;2.67;;;18.70;99.90;;;;;;5030716;28;20049;-80
2022/06/27 08:08:46;;;;;;;4.40;2.20;;;18.80;99.90;;;;;;5030923;28;20041;-80
2022/06/27 08:11:19;;;;;;;2.65;2.20;;;18.90;99.90;;;;;;5030432;28;20047;-80
2022/06/27 08:13:47;;;;;;;3.65;2.78;;;19.10;99.90;;;;;;5030751;28;20083;-80
2022/06/27 08:16:14;;;;;;;7.95;3.03;;;19.20;99.90;;;;;;5014253;28;20556;-81
2022/06/27 08:18:46;;;;;;;3.75;2.50;;;19.30;99.90;;;;;;5030791;28;20120;-80
2022/06/27 08:21:12;;;;;;;4.13;2.13;;;19.30;99.90;;;;;;5033889;28;20057;-80
2022/06/27 08:23:38;;;;;;;3.63;2.00;;;19.20;99.90;;;;;;5033221;28;20115;-81
2022/06/27 08:26:08;;;;;;;5.00;2.38;;;19.20;99.90;;;;;;5032019;28;20076;-80
2022/06/27 08:28:36;;;;;;;3.95;1.90;;;19.10;99.90;;;;;;5023754;28;20049;-81
2022/06/27 08:31:07;;;;;;;2.03;1.83;;;19.00;99.90;;;;;;5025265;28;20046;-80
2022/06/27 08:33:33;;;;;;;3.28;2.08;;;19.10;99.90;;;;;;5019817;28;20084;-81
2022/06/27 08:36:00;;;;;;;3.22;1.80;;;19.10;99.90;;;;;;5026846;28;20029;-80
2022/06/27 08:38:26;;;;;;;2.55;1.98;;;19.10;99.90;;;;;;5022338;28;20547;-81
2022/06/27 08:40:55;;;;;;;3.30;1.52;;;19.10;99.90;;;;;;5013938;28;20049;-80
2022/06/27 08:43:22;;;;;;;4.25;1.85;;;19.20;99.90;;;;;;5030731;28;20041;-80
2022/06/27 08:45:52;;;;;;;2.22;1.63;;;19.30;99.90;;;;;;5007436;28;20408;-81
2022/06/27 08:48:19;;;;;;;2.45;1.52;;;19.60;99.90;;;;;;5019049;28;20049;-80
2022/06/27 08:50:48;;;;;;;4.07;1.90;;;19.80;99.90;;;;;;4993668;28;20041;-80
2022/06/27 08:53:14;;;;;;;3.28;1.42;;;20.00;99.90;;;;;;5012168;28;20041;-81
2022/06/27 08:55:47;;;;;;;1.90;1.67;;;20.40;99.90;;;;;;5022568;28;20044;-79
2022/06/27 08:58:13;;;;;;;15.60;9.50;;;20.60;99.90;;;;;;5025058;28;20045;-79
2022/06/27 09:00:45;;;;;;;4.25;2.33;;;20.90;99.90;;;;;;5011594;28;20404;-81
2022/06/27 09:03:12;;;;;;;2.85;2.50;;;21.10;99.90;;;;;;5022210;28;20052;-81
2022/06/27 09:05:37;;;;;;;4.88;1.90;;;21.30;99.90;;;;;;4994781;28;20046;-81
2022/06/27 09:08:05;;;;;;;1.83;1.40;;;21.30;99.90;;;;;;5015107;28;20065;-81
2022/06/27 09:10:42;;;;;;;2.40;1.42;;;21.40;99.90;;;;;;5033472;28;20049;-81
2022/06/27 09:13:14;;;;;;;2.65;1.20;;;21.40;99.90;;;;;;5024990;28;20037;-80
2022/06/27 09:15:52;;;;;;;2.38;1.13;;;21.30;99.90;;;;;;5010877;28;20038;-80
2022/06/27 09:18:27;;;;;;;2.92;1.70;;;21.20;99.90;;;;;;5009415;28;20096;-80
2022/06/27 09:21:05;;;;;;;2.33;1.35;;;21.00;99.90;;;;;;5030607;28;20554;-82
2022/06/27 09:24:04;;;;;;;2.35;1.17;;;20.80;99.90;;;;;;5015469;28;20307;-78
2022/06/27 09:26:35;;;;;;;3.13;1.70;;;20.60;99.90;;;;;;5182948;23;20033;-80
2022/06/27 09:29:09;;;;;;;2.08;1.42;;;20.40;99.90;;;;;;5053934;28;20078;-80
2022/06/27 09:46:15;;;;;;;2.83;2.58;;;20.20;99.90;;;;;;4912430;29;20052;-80
2022/06/27 09:48:43;;;;;;;3.30;3.00;;;20.20;99.90;;;;;;4897508;29;20048;-80
2022/06/27 09:51:15;;;;;;;5.43;3.55;;;20.30;99.90;;;;;;5022413;28;20064;-80
2022/06/27 09:53:48;;;;;;;13.32;8.65;;;20.20;99.90;;;;;;5054549;28;20483;-79
2022/06/27 09:56:16;;;;;;;4.72;2.80;;;20.20;99.90;;;;;;5054098;28;20090;-80
2022/06/27 09:58:43;;;;;;;3.25;2.67;;;20.20;99.90;;;;;;5054334;28;20123;-80
2022/06/27 10:01:10;;;;;;;3.90;2.55;;;20.30;99.90;;;;;;5054758;28;20097;-79
2022/06/27 10:03:37;;;;;;;3.55;2.15;;;20.30;99.90;;;;;;5056049;28;20053;-80
2022/06/27 10:06:05;;;;;;;4.13;2.30;;;20.30;99.90;;;;;;5056908;28;20633;-81
2022/06/27 10:08:32;;;;;;;2.97;2.38;;;20.30;99.90;;;;;;5057004;28;20119;-81
2022/06/27 10:11:02;;;;;;;2.88;1.70;;;20.30;99.90;;;;;;5056377;28;20051;-80
2022/06/27 10:13:29;;;;;;;2.15;1.95;;;20.30;99.90;;;;;;5056846;28;20538;-80
2022/06/27 10:15:58;;;;;;;2.45;1.85;;;20.20;99.90;;;;;;5056741;28;20072;-80
2022/06/27 10:18:24;;;;;;;2.63;2.00;;;20.20;99.90;;;;;;5040070;28;20080;-80
2022/06/27 10:20:51;;;;;;;4.60;2.17;;;20.10;99.90;;;;;;5074942;28;20062;-78
2022/06/27 10:23:25;;;;;;;3.90;2.05;;;20.00;99.90;;;;;;5061655;28;20066;-77
2022/06/27 10:25:51;;;;;;;5.00;1.70;;;20.00;99.90;;;;;;5079015;28;20036;-78
2022/06/27 10:28:18;;;;;;;2.80;1.95;;;20.00;99.90;;;;;;5057379;28;20040;-78
2022/06/27 10:30:52;;;;;;;3.47;2.00;;;19.90;99.90;;;;;;5055736;28;20045;-78
2022/06/27 10:33:21;;;;;;;3.97;1.98;;;19.90;99.90;;;;;;5073873;28;20518;-78
2022/06/27 10:35:59;;;;;;;4.78;2.25;;;19.90;99.90;;;;;;5055895;28;20040;-78
2022/06/27 10:38:28;;;;;;;5.25;2.40;;;19.90;99.90;;;;;;5039687;28;20507;-78
2022/06/27 10:40:55;;;;;;;4.35;2.75;;;19.90;99.90;;;;;;5055800;28;20499;-78
2022/06/27 10:43:36;;;;;;;3.55;2.58;;;20.00;99.90;;;;;;5040256;28;20713;-78
2022/06/27 10:46:22;;;;;;;3.78;2.05;;;20.00;99.90;;;;;;5039598;28;20051;-78
2022/06/27 10:48:58;;;;;;;3.92;2.38;;;20.10;99.90;;;;;;5041983;28;20067;-77
2022/06/27 10:51:27;;;;;;;3.53;3.13;;;20.10;99.90;;;;;;5038712;28;20049;-77
2022/06/27 10:53:59;;;;;;;6.25;3.20;;;20.10;99.90;;;;;;5073333;28;20115;-78
2022/06/27 10:56:43;;;;;;;;;;;20.10;99.90;;;;;;5056154;28;20448;-78
2022/06/27 10:59:15;;;;;;;7.90;3.55;;;20.00;99.90;;;;;;5046835;28;19923;-78
2022/06/27 11:02:00;;;;;;;4.95;3.05;;;19.90;99.90;;;;;;5071878;28;20425;-77
2022/06/27 11:04:30;;;;;;;5.10;3.03;;;20.00;99.90;;;;;;5025114;28;20083;-78
2022/06/27 11:07:02;;;;;;;7.05;3.38;;;20.00;99.90;;;;;;5054320;28;20357;-78
2022/06/27 11:09:43;;;;;;;3.35;2.97;;;20.00;99.90;;;;;;5046823;28;20143;-78
2022/06/27 11:12:09;;;;;;;4.32;3.63;;;20.10;99.90;;;;;;5055459;28;20047;-78
2022/06/27 11:14:52;;;;;;;3.85;3.08;;;20.10;99.90;;;;;;5038036;28;20064;-78
2022/06/27 11:17:27;;;;;;;6.72;3.53;;;20.10;99.90;;;;;;5044697;28;20518;-78
2022/06/27 11:20:25;;;;;;;4.22;3.72;;;20.00;99.90;;;;;;5049831;28;20471;-78
2022/06/27 11:23:01;;;;;;;3.97;3.00;;;20.00;99.90;;;;;;4996583;28;20179;-78
2022/06/27 11:25:29;;;;;;;7.47;3.67;;;20.00;99.90;;;;;;5054602;28;20044;-78
2022/06/27 11:33:31;;;;;;;4.68;3.60;;;20.10;99.90;;;;;;5046046;28;20089;-78
2022/06/27 11:35:59;;;;;;;5.07;3.45;;;20.20;99.90;;;;;;5054963;28;20565;-78
2022/06/27 11:38:48;;;;;;;4.15;3.75;;;20.30;99.90;;;;;;5054905;28;20072;-78
2022/06/27 11:41:26;;;;;;;4.22;2.83;;;20.30;99.90;;;;;;5044471;28;20132;-78
2022/06/27 11:43:56;;;;;;;5.22;3.10;;;20.50;99.90;;;;;;5042124;28;20542;-78
2022/06/27 11:46:35;;;;;;;5.50;3.50;;;20.50;99.90;;;;;;5050094;28;20086;-77
2022/06/27 11:49:09;;;;;;;4.35;3.00;;;20.50;99.90;;;;;;5050390;28;20033;-78
2022/06/27 11:51:41;;;;;;;6.43;2.88;;;20.40;99.90;;;;;;5035593;28;20499;-78
2022/06/27 11:54:12;;;;;;;5.15;3.05;;;20.40;99.90;;;;;;5042691;28;20041;-76
2022/06/27 11:56:49;;;;;;;9.00;2.63;;;20.40;99.90;;;;;;5053271;28;20032;-77
2022/06/27 11:59:16;;;;;;;7.72;2.70;;;20.50;99.90;;;;;;5053457;28;20305;-79
2022/06/27 12:02:03;;;;;;;4.20;2.40;;;20.50;99.90;;;;;;5053870;28;20111;-77
2022/06/27 12:04:31;;;;;;;2.92;2.30;;;20.50;99.90;;;;;;5036307;28;20433;-78
2022/06/27 12:07:04;;;;;;;4.40;2.15;;;20.60;99.90;;;;;;5047788;28;20051;-78
2022/06/27 12:09:30;;;;;;;4.47;2.53;;;20.70;99.90;;;;;;5044400;28;20153;-78
2022/06/27 12:12:04;;;;;;;4.60;1.98;;;20.80;99.90;;;;;;5054257;28;20440;-78
2022/06/27 12:14:42;;;;;;;5.28;2.88;;;20.90;99.90;;;;;;5053917;28;20079;-78
2022/06/27 12:17:08;;;;;;;3.42;2.38;;;21.00;99.90;;;;;;5053927;28;20120;-78
2022/06/27 12:19:34;;;;;;;5.80;2.22;;;21.00;99.90;;;;;;5048708;28;20119;-78
2022/06/27 12:21:59;;;;;;;3.13;1.95;;;21.20;99.90;;;;;;5043561;28;20032;-78
2022/06/27 12:24:25;;;;;;;5.07;2.80;;;21.30;99.90;;;;;;5052790;28;20051;-78
2022/06/27 12:26:51;;;;;;;5.60;3.05;;;21.30;99.90;;;;;;5036566;28;20193;-77
2022/06/27 12:29:17;;;;;;;3.75;1.75;;;21.30;99.90;;;;;;5051693;28;20041;-78
2022/06/27 12:31:43;;;;;;;5.65;2.28;;;21.40;99.90;;;;;;5050358;28;20064;-77
2022/06/27 12:34:10;;;;;;;4.15;1.83;;;21.40;99.90;;;;;;5033759;28;20087;-78
2022/06/27 12:36:36;;;;;;;2.80;2.30;;;21.50;99.90;;;;;;5037906;28;20028;-78
2022/06/27 12:39:03;;;;;;;5.55;3.17;;;21.50;99.90;;;;;;5051549;28;20060;-78
2022/06/27 12:41:29;;;;;;;7.63;2.97;;;21.50;99.90;;;;;;5050036;28;20055;-77
2022/06/27 12:43:57;;;;;;;6.03;3.05;;;21.50;99.90;;;;;;5051704;28;20680;-78
2022/06/27 12:46:23;;;;;;;5.68;2.30;;;21.50;99.90;;;;;;5042927;28;20052;-76
2022/06/27 12:48:49;;;;;;;4.20;2.72;;;21.40;99.90;;;;;;5046247;28;20608;-77
2022/06/27 12:51:15;;;;;;;5.75;2.55;;;21.30;99.90;;;;;;5035128;28;20051;-77
2022/06/27 12:53:41;;;;;;;7.25;2.65;;;21.30;99.90;;;;;;5071300;28;20024;-77
2022/06/27 12:56:08;;;;;;;5.00;2.70;;;21.20;99.90;;;;;;5071616;28;20036;-77
2022/06/27 12:58:34;;;;;;;3.63;2.88;;;21.20;99.90;;;;;;5048990;28;20082;-77
2022/06/27 13:01:00;;;;;;;3.75;2.42;;;21.10;99.90;;;;;;5048632;28;20367;-77
2022/06/27 13:03:26;;;;;;;5.07;2.45;;;21.10;99.90;;;;;;5050119;28;20044;-76
2022/06/27 13:05:51;;;;;;;3.22;1.85;;;21.00;99.90;;;;;;5039897;28;20040;-76
2022/06/27 13:08:18;;;;;;;3.60;2.38;;;21.00;99.90;;;;;;5053361;28;20131;-76
2022/06/27 13:10:43;;;;;;;3.78;2.55;;;20.90;99.90;;;;;;5052082;28;20041;-76
2022/06/27 13:13:10;;;;;;;3.35;2.67;;;20.80;99.90;;;;;;5027848;28;20037;-76